Ellisville Junction, Mississippi
Current Conditions -  °F | °C
As of 10:15 AM on Monday 22 Dec 2014 (Local Time) from KPIB Reporting Station
Overcast Overcast  
Wind Chill: 57°   Ceiling: 200
Heat Index: 57°   Visibility: 3mi
Dew Point: 55°   Wind: 7mph
Humidity: 94%   Direction: 120°ESE
Pressure: 29.85"   Gusts: NA
Location:  31.5533°N, 89.2322°W
Report Text: KPIB 221615Z AUTO 12006KT 3SM OVC002 14/13 A2985 RMK AO1
Loading
Personal Weather Stations






























Interactive Weather Map New forecast layout! Learn more

10-Day Weather Forecast

Advertisements
Track Severe Weather on mobile